Time;durP1;ratioP1;P1;durP2;ratioP2;P2;SDS_P1;SDS_P2;PMS_P1;PMS_P2;Temp;Humidity;BMP_temperature;BMP_pressure;BME280_temperature;BME280_humidity;BME280_pressure;Samples;Min_cycle;Max_cycle;Signal;HPM_P1;HPM_P2
2023/12/12 00:02:45;;;;;;;45.85;27.08;;;;;;;;;;5091251;28;20051;-68
2023/12/12 00:05:50;;;;;;;47.40;24.90;;;;;;;;;;5091213;28;20039;-68
2023/12/12 00:08:54;;;;;;;42.40;23.00;;;;;;;;;;5091148;28;20044;-67
2023/12/12 00:11:59;;;;;;;37.35;21.58;;;;;;;;;;5091165;28;20047;-67
2023/12/12 00:15:03;;;;;;;36.72;21.08;;;;;;;;;;5078632;28;20043;-68
2023/12/12 00:18:07;;;;;;;35.55;19.35;;;;;;;;;;5091299;28;20059;-68
2023/12/12 00:21:12;;;;;;;41.53;20.25;;;;;;;;;;5078641;28;20047;-67
2023/12/12 00:24:17;;;;;;;31.63;17.60;;;;;;;;;;5091051;28;20042;-67
2023/12/12 00:27:21;;;;;;;26.10;14.30;;;;;;;;;;5091270;28;20047;-68
2023/12/12 00:30:26;;;;;;;25.70;13.13;;;;;;;;;;5090780;28;20043;-68
2023/12/12 00:33:30;;;;;;;33.67;15.52;;;;;;;;;;5091078;28;20051;-68
2023/12/12 00:36:34;;;;;;;26.30;15.60;;;;;;;;;;5091134;28;20047;-68
2023/12/12 00:39:39;;;;;;;29.77;15.68;;;;;;;;;;5091006;28;20051;-67
2023/12/12 00:42:44;;;;;;;27.13;14.70;;;;;;;;;;5090692;28;20055;-68
2023/12/12 00:45:48;;;;;;;31.55;15.40;;;;;;;;;;5078451;28;20391;-68
2023/12/12 00:48:52;;;;;;;29.65;14.07;;;;;;;;;;5090950;28;20051;-68
2023/12/12 00:51:56;;;;;;;24.40;11.43;;;;;;;;;;5091318;28;20039;-68
2023/12/12 00:55:04;;;;;;;25.02;12.32;;;;;;;;;;5090988;28;20637;-68
2023/12/12 00:58:08;;;;;;;33.15;13.07;;;;;;;;;;5091227;28;20388;-68
2023/12/12 01:01:13;;;;;;;19.90;11.93;;;;;;;;;;5090905;28;20062;-68
2023/12/12 01:04:18;;;;;;;32.60;12.45;;;;;;;;;;5090871;28;20036;-68
2023/12/12 01:07:22;;;;;;;25.10;12.50;;;;;;;;;;5091018;28;20047;-68
2023/12/12 01:10:26;;;;;;;24.40;10.48;;;;;;;;;;5090490;28;20495;-69
2023/12/12 01:13:31;;;;;;;24.73;12.43;;;;;;;;;;5091436;28;20043;-69
2023/12/12 01:16:36;;;;;;;24.20;11.57;;;;;;;;;;5094271;28;20047;-68
2023/12/12 01:19:40;;;;;;;26.73;11.13;;;;;;;;;;5053202;28;20048;-68
2023/12/12 01:22:45;;;;;;;19.08;9.82;;;;;;;;;;5052779;28;20064;-68
2023/12/12 01:25:49;;;;;;;26.45;12.55;;;;;;;;;;5052791;28;20044;-68
2023/12/12 01:28:54;;;;;;;24.08;12.32;;;;;;;;;;5064521;28;20067;-68
2023/12/12 01:31:58;;;;;;;20.20;11.82;;;;;;;;;;5053813;28;20048;-68
2023/12/12 01:35:03;;;;;;;25.63;12.27;;;;;;;;;;5053782;28;20052;-68
2023/12/12 01:38:07;;;;;;;36.00;12.45;;;;;;;;;;5053560;28;20040;-68
2023/12/12 01:41:11;;;;;;;18.73;10.60;;;;;;;;;;5053517;28;20044;-68
2023/12/12 01:44:15;;;;;;;24.35;12.15;;;;;;;;;;5053678;28;20040;-68
2023/12/12 01:47:20;;;;;;;20.25;10.10;;;;;;;;;;5064452;28;20040;-68
2023/12/12 01:50:25;;;;;;;24.25;10.88;;;14.10;99.90;;;;;;5053570;28;20052;-68
2023/12/12 01:53:51;;;;;;;28.40;10.90;;;14.30;99.90;;;;;;5063983;28;20077;-68
2023/12/12 01:56:56;;;;;;;23.88;11.15;;;;;;;;;;5053101;28;20060;-68
2023/12/12 02:00:00;;;;;;;19.58;9.95;;;;;;;;;;5053083;28;20051;-68
2023/12/12 02:03:04;;;;;;;20.08;8.90;;;;;;;;;;5053294;28;20048;-68
2023/12/12 02:06:10;;;;;;;19.95;10.43;;;13.90;99.90;;;;;;5052505;28;20052;-69
2023/12/12 02:09:15;;;;;;;22.98;9.38;;;;;;;;;;5052934;28;20511;-69
2023/12/12 02:12:19;;;;;;;18.63;9.20;;;;;;;;;;5052957;28;20048;-68
2023/12/12 02:15:24;;;;;;;24.42;10.20;;;;;;;;;;5052382;28;20381;-68
2023/12/12 02:18:28;;;;;;;18.20;10.07;;;;;;;;;;5081061;28;20410;-68
2023/12/12 02:21:33;;;;;;;26.90;10.50;;;;;;;;;;5092968;28;20050;-69
2023/12/12 02:24:37;;;;;;;26.02;10.27;;;;;;;;;;5092561;28;20507;-69
2023/12/12 02:27:43;;;;;;;21.60;9.50;;;;;;;;;;5092862;28;20051;-68
2023/12/12 02:30:47;;;;;;;25.90;8.68;;;;;;;;;;5092625;28;20044;-68
2023/12/12 02:33:51;;;;;;;21.52;8.43;;;;;;;;;;5092984;28;20507;-68
2023/12/12 02:36:55;;;;;;;21.38;8.40;;;;;;;;;;5092423;28;20039;-69
2023/12/12 02:40:00;;;;;;;25.42;9.68;;;;;;;;;;5080192;28;20047;-69
2023/12/12 02:43:04;;;;;;;23.55;10.25;;;;;;;;;;5092203;28;20051;-68
2023/12/12 02:46:09;;;;;;;23.17;9.48;;;14.00;99.90;;;;;;5092216;28;20035;-68
2023/12/12 02:49:13;;;;;;;31.55;8.45;;;;;;;;;;5092547;28;20395;-68
2023/12/12 02:52:17;;;;;;;18.35;7.60;;;;;;;;;;5092344;28;20059;-68
2023/12/12 02:55:21;;;;;;;18.92;7.65;;;;;;;;;;5092134;28;20043;-68
2023/12/12 02:58:26;;;;;;;20.88;7.65;;;;;;;;;;5092186;28;20043;-69
2023/12/12 03:01:31;;;;;;;23.98;6.97;;;;;;;;;;5091822;28;20052;-68
2023/12/12 03:04:35;;;;;;;17.23;7.13;;;;;;;;;;5092269;28;20042;-68
2023/12/12 03:07:42;;;;;;;22.20;6.40;;;17.10;99.90;;;;;;5092277;28;20562;-68
2023/12/12 03:10:47;;;;;;;25.73;6.45;;;14.00;99.90;;;;;;5079547;28;20047;-68
2023/12/12 03:13:51;;;;;;;15.43;5.32;;;;;;;;;;5092244;28;20039;-68
2023/12/12 03:16:56;;;;;;;16.42;5.05;;;;;;;;;;5091915;28;20039;-68
2023/12/12 03:20:00;;;;;;;20.95;4.55;;;;;;;;;;5092039;28;20054;-68
2023/12/12 03:23:05;;;;;;;18.45;4.30;;;;;;;;;;5091745;28;20055;-68
2023/12/12 03:26:11;;;;;;;11.80;4.35;;;;;;;;;;5091944;28;20423;-68
2023/12/12 03:29:15;;;;;;;21.13;4.97;;;;;;;;;;5078973;28;20043;-69
2023/12/12 03:32:22;;;;;;;18.63;5.25;;;;;;;;;;5091570;28;20039;-69
2023/12/12 03:35:26;;;;;;;26.02;5.00;;;;;;;;;;5091830;28;20047;-69
2023/12/12 03:38:31;;;;;;;20.85;5.13;;;;;;;;;;5091791;28;20043;-68
2023/12/12 03:41:35;;;;;;;16.65;4.82;;;;;;;;;;5091303;28;20047;-68
2023/12/12 03:44:40;;;;;;;17.73;5.47;;;;;;;;;;5091676;28;20047;-68
2023/12/12 03:47:44;;;;;;;19.38;4.18;;;;;;;;;;5091601;28;20051;-69
2023/12/12 03:50:49;;;;;;;21.70;5.07;;;;;;;;;;5091639;28;20114;-68
2023/12/12 03:53:54;;;;;;;18.77;4.40;;;;;;;;;;5091298;28;20039;-68
2023/12/12 03:56:58;;;;;;;16.58;4.32;;;;;;;;;;5091555;28;20062;-69
2023/12/12 04:00:06;;;;;;;12.57;3.95;;;;;;;;;;5091148;28;20411;-68
2023/12/12 04:03:16;;;;;;;13.35;3.80;;;;;;;;;;5091097;28;20051;-68
2023/12/12 04:06:21;;;;;;;23.58;4.85;;;;;;;;;;5079055;28;20039;-69
2023/12/12 04:09:25;;;;;;;22.77;3.80;;;;;;;;;;5091406;28;20047;-69
2023/12/12 04:12:29;;;;;;;19.85;5.05;;;;;;;;;;5091113;28;20047;-68
2023/12/12 04:15:34;;;;;;;20.42;4.38;;;;;;;;;;5091040;28;20392;-68
2023/12/12 04:18:38;;;;;;;21.35;3.85;;;;;;;;;;5091039;28;20071;-68
2023/12/12 04:21:43;;;;;;;26.02;5.40;;;;;;;;;;5091104;28;20067;-68
2023/12/12 04:24:48;;;;;;;21.42;6.18;;;;;;;;;;5090839;28;20044;-69
2023/12/12 04:27:52;;;;;;;27.13;5.75;;;;;;;;;;5091035;28;20053;-68
2023/12/12 04:30:56;;;;;;;17.65;4.88;;;;;;;;;;5078328;28;20039;-68
2023/12/12 04:34:01;;;;;;;15.85;4.00;;;;;;;;;;5090997;28;20051;-69
2023/12/12 04:37:06;;;;;;;15.45;3.80;;;;;;;;;;5090958;28;20039;-68
2023/12/12 04:40:10;;;;;;;18.80;4.50;;;;;;;;;;5090366;28;20051;-69
2023/12/12 04:43:14;;;;;;;20.17;4.35;;;;;;;;;;5090423;28;20510;-68
2023/12/12 04:46:21;;;;;;;18.10;4.20;;;14.40;99.90;;;;;;5090693;28;20043;-68
2023/12/12 04:49:25;;;;;;;13.52;3.80;;;;;;;;;;5092597;28;20039;-69
2023/12/12 04:52:30;;;;;;;19.73;4.47;;;;;;;;;;5082086;28;20043;-68
2023/12/12 04:55:34;;;;;;;17.48;4.57;;;;;;;;;;5094575;28;20603;-68
2023/12/12 04:58:38;;;;;;;25.25;5.78;;;;;;;;;;5094248;28;20043;-68
2023/12/12 05:01:43;;;;;;;18.75;4.63;;;;;;;;;;5094125;28;20051;-68
2023/12/12 05:04:47;;;;;;;13.52;4.22;;;;;;;;;;5094159;28;20055;-69
2023/12/12 05:07:52;;;;;;;21.23;4.38;;;;;;;;;;5094323;28;20106;-69
2023/12/12 05:10:57;;;;;;;14.80;4.28;;;;;;;;;;5094171;28;20047;-68
2023/12/12 05:14:04;;;;;;;16.90;3.80;;;;;;;;;;5081744;28;20055;-69
2023/12/12 05:17:08;;;;;;;11.95;3.83;;;;;;;;;;5093716;28;20383;-68
2023/12/12 05:20:13;;;;;;;17.92;4.07;;;;;;;;;;5093786;28;20067;-68
2023/12/12 05:23:17;;;;;;;17.67;4.30;;;;;;;;;;5093662;28;20065;-68
2023/12/12 05:26:21;;;;;;;17.35;4.15;;;;;;;;;;5093904;28;20043;-68
2023/12/12 05:29:26;;;;;;;17.33;4.20;;;;;;;;;;5093484;28;20047;-69
2023/12/12 05:32:30;;;;;;;18.45;4.45;;;;;;;;;;5081188;28;20043;-68
2023/12/12 05:35:34;;;;;;;13.80;4.63;;;;;;;;;;5093655;28;20042;-69
2023/12/12 05:38:39;;;;;;;16.60;4.43;;;;;;;;;;5093469;28;20094;-67
2023/12/12 05:41:43;;;;;;;16.55;4.25;;;;;;;;;;5080932;28;20058;-68
2023/12/12 05:44:48;;;;;;;24.58;5.55;;;;;;;;;;5093591;28;20114;-68
2023/12/12 05:47:52;;;;;;;14.50;4.15;;;;;;;;;;5093297;28;20047;-68
2023/12/12 05:50:57;;;;;;;12.70;4.10;;;;;;;;;;5093107;28;20051;-68
2023/12/12 05:54:02;;;;;;;24.42;5.75;;;;;;;;;;5093269;28;20031;-68
2023/12/12 05:57:06;;;;;;;26.25;6.13;;;;;;;;;;5093430;28;20154;-68
2023/12/12 06:00:11;;;;;;;18.58;4.20;;;;;;;;;;5093087;28;20356;-68
2023/12/12 06:03:18;;;;;;;16.65;3.58;;;;;;;;;;5093185;28;20051;-68
2023/12/12 06:06:23;;;;;;;15.50;4.40;;;;;;;;;;5093149;28;20047;-68
2023/12/12 06:09:27;;;;;;;12.80;4.13;;;;;;;;;;5093118;28;20046;-69
2023/12/12 06:12:32;;;;;;;17.30;3.90;;;;;;;;;;5092974;28;20043;-68
2023/12/12 06:15:36;;;;;;;17.02;4.70;;;;;;;;;;5092808;28;20399;-68
2023/12/12 06:18:40;;;;;;;17.80;4.35;;;;;;;;;;5092727;28;20403;-69
2023/12/12 06:21:46;;;;;;;12.98;4.22;;;;;;;;;;5092893;28;20502;-69
2023/12/12 06:24:51;;;;;;;14.40;4.30;;;;;;;;;;5080555;28;20059;-68
2023/12/12 06:27:56;;;;;;;13.20;4.38;;;;;;;;;;5093110;28;20507;-68
2023/12/12 06:31:00;;;;;;;15.68;4.25;;;;;;;;;;5092392;28;20388;-68
2023/12/12 06:34:05;;;;;;;15.15;4.55;;;;;;;;;;5092530;28;20392;-66
2023/12/12 06:37:10;;;;;;;22.85;5.32;;;;;;;;;;5068323;28;20043;-66
2023/12/12 06:40:14;;;;;;;20.00;5.80;;;;;;;;;;5092777;28;20042;-67
2023/12/12 06:43:19;;;;;;;14.75;5.07;;;;;;;;;;5092075;28;20066;-66
2023/12/12 06:46:23;;;;;;;24.83;7.65;;;;;;;;;;5092150;28;20042;-67
2023/12/12 06:49:27;;;;;;;23.80;7.70;;;;;;;;;;5092395;28;20424;-68
2023/12/12 06:52:35;;;;;;;24.15;8.57;;;16.50;99.90;;;;;;5091777;28;20051;-67
2023/12/12 06:55:39;;;;;;;19.10;6.93;;;;;;;;;;5092115;28;20039;-67
2023/12/12 06:58:43;;;;;;;23.08;9.10;;;;;;;;;;5091983;28;20050;-67
2023/12/12 07:01:47;;;;;;;26.75;7.75;;;;;;;;;;5091611;28;20071;-67
2023/12/12 07:04:52;;;;;;;22.63;6.18;;;;;;;;;;5079334;28;20043;-66
2023/12/12 07:07:56;;;;;;;20.38;7.60;;;;;;;;;;5091344;28;20039;-67
2023/12/12 07:11:01;;;;;;;18.48;7.95;;;;;;;;;;5078519;28;20043;-67
2023/12/12 07:14:05;;;;;;;19.63;6.13;;;;;;;;;;5091654;28;20050;-67
2023/12/12 07:17:09;;;;;;;12.25;6.40;;;;;;;;;;5091130;28;20538;-66
2023/12/12 07:20:14;;;;;;;15.90;6.63;;;;;;;;;;5091480;28;20047;-67
2023/12/12 07:23:18;;;;;;;21.13;7.18;;;;;;;;;;5091585;28;20511;-67
2023/12/12 07:26:24;;;;;;;21.45;7.30;;;;;;;;;;5091673;28;20047;-65
2023/12/12 07:29:28;;;;;;;17.90;6.55;;;;;;;;;;5091497;28;20499;-67
2023/12/12 07:32:33;;;;;;;16.42;6.97;;;;;;;;;;5091631;28;20058;-66
2023/12/12 07:35:37;;;;;;;18.55;6.80;;;;;;;;;;5091471;28;20051;-66
2023/12/12 07:38:41;;;;;;;18.17;7.68;;;;;;;;;;5091604;28;20515;-67
2023/12/12 07:41:46;;;;;;;16.50;7.10;;;;;;;;;;5091192;28;20047;-68
2023/12/12 07:44:50;;;;;;;17.33;7.15;;;;;;;;;;5091415;28;20059;-67
2023/12/12 07:47:54;;;;;;;14.80;6.70;;;;;;;;;;5091045;28;20047;-68
2023/12/12 07:50:58;;;;;;;13.70;6.13;;;;;;;;;;5078559;28;20071;-67
2023/12/12 07:54:05;;;;;;;18.63;7.40;;;;;;;;;;5091228;28;20047;-65
2023/12/12 07:57:10;;;;;;;19.60;7.70;;;;;;;;;;5090879;28;20093;-66
2023/12/12 08:00:15;;;;;;;19.52;7.68;;;;;;;;;;5090579;28;20047;-65
2023/12/12 08:03:19;;;;;;;18.48;6.43;;;;;;;;;;5078499;28;20055;-65
2023/12/12 08:06:23;;;;;;;13.85;5.72;;;;;;;;;;5090894;28;20039;-66
2023/12/12 08:09:29;;;;;;;24.65;5.72;;;;;;;;;;5090867;28;20047;-66
2023/12/12 08:12:33;;;;;;;20.58;6.30;;;;;;;;;;5078239;28;20047;-66
2023/12/12 08:15:38;;;;;;;13.00;5.05;;;;;;;;;;5090847;28;20396;-66
2023/12/12 08:18:42;;;;;;;12.65;5.03;;;;;;;;;;5078024;28;20051;-66
2023/12/12 08:21:46;;;;;;;10.38;4.28;;;;;;;;;;5090651;28;20043;-66
2023/12/12 08:24:51;;;;;;;10.90;5.25;;;;;;;;;;5094734;28;20051;-66
2023/12/12 08:27:57;;;;;;;8.77;4.85;;;;;;;;;;5094995;28;20059;-66
2023/12/12 08:31:01;;;;;;;13.93;5.70;;;;;;;;;;5094624;28;20048;-66
2023/12/12 08:34:06;;;;;;;17.63;6.95;;;;;;;;;;5094787;28;20054;-65
2023/12/12 08:37:10;;;;;;;27.02;10.35;;;;;;;;;;5081890;28;20043;-65
2023/12/12 08:40:14;;;;;;;19.02;8.13;;;;;;;;;;5082025;28;20768;-65
2023/12/12 08:43:19;;;;;;;16.45;7.85;;;;;;;;;;5094351;28;20054;-66
2023/12/12 08:46:26;;;;;;;14.05;6.88;;;;;;;;;;5094506;28;20076;-64
2023/12/12 08:49:33;;;;;;;13.10;6.40;;;;;;;;;;5094527;28;20055;-65
2023/12/12 08:52:40;;;;;;;15.10;7.53;;;;;;;;;;5082150;28;20415;-66
2023/12/12 08:55:45;;;;;;;15.18;6.80;;;;;;;;;;5081801;28;20043;-66
2023/12/12 08:58:51;;;;;;;10.57;6.40;;;;;;;;;;5094266;28;20059;-66
2023/12/12 09:01:55;;;;;;;10.38;5.28;;;;;;;;;;5093832;28;20079;-65
2023/12/12 09:05:00;;;;;;;9.00;5.03;;;;;;;;;;5093895;28;20047;-66
2023/12/12 09:08:04;;;;;;;11.50;6.03;;;;;;;;;;5093782;28;20040;-65
2023/12/12 09:11:11;;;;;;;11.65;6.22;;;15.50;99.90;;;;;;5094068;28;20047;-66
2023/12/12 09:14:16;;;;;;;12.30;5.90;;;;;;;;;;5093703;28;20047;-66
2023/12/12 09:17:20;;;;;;;20.98;9.55;;;;;;;;;;5093895;28;20051;-67
2023/12/12 09:20:24;;;;;;;20.10;9.57;;;;;;;;;;5093657;28;20043;-65
2023/12/12 09:23:30;;;;;;;27.52;11.45;;;;;;;;;;5093853;28;20059;-66
2023/12/12 09:26:35;;;;;;;23.60;10.63;;;;;;;;;;5093876;28;20044;-66
2023/12/12 09:29:41;;;;;;;22.95;11.68;;;15.50;99.90;;;;;;5081439;28;20518;-66
2023/12/12 09:32:46;;;;;;;21.60;11.55;;;;;;;;;;5093609;28;20055;-66
2023/12/12 09:35:50;;;;;;;24.67;14.98;;;;;;;;;;5080477;28;20059;-66
2023/12/12 09:38:55;;;;;;;32.50;16.50;;;;;;;;;;5093873;28;20123;-66
2023/12/12 09:42:00;;;;;;;29.38;15.93;;;15.70;99.90;;;;;;5081131;28;20051;-68
2023/12/12 09:45:07;;;;;;;40.15;18.45;;;;;;;;;;5093409;28;20502;-68
2023/12/12 09:48:11;;;;;;;31.77;14.60;;;;;;;;;;5093316;28;20039;-67
2023/12/12 09:51:15;;;;;;;30.27;15.93;;;;;;;;;;5093113;28;20043;-67
2023/12/12 09:54:21;;;;;;;33.17;15.32;;;;;;;;;;5093376;28;20517;-67
2023/12/12 09:57:28;;;;;;;34.63;15.82;;;;;;;;;;5093095;28;20126;-67
2023/12/12 10:00:32;;;;;;;27.05;15.00;;;;;;;;;;5093571;28;20039;-66
2023/12/12 10:03:36;;;;;;;30.42;14.82;;;;;;;;;;5092920;28;20055;-66
2023/12/12 10:06:42;;;;;;;25.38;14.65;;;;;;;;;;5080848;28;20054;-67
2023/12/12 10:09:48;;;;;;;24.80;13.13;;;;;;;;;;5093026;28;20051;-67
2023/12/12 10:12:52;;;;;;;23.90;13.13;;;;;;;;;;5092952;28;20675;-67
2023/12/12 10:16:11;;;;;;;24.52;12.57;;;;;;;;;;5093149;28;20043;-67
2023/12/12 10:19:16;;;;;;;22.30;11.90;;;;;;;;;;5092816;28;20074;-68
2023/12/12 10:22:20;;;;;;;27.02;13.35;;;;;;;;;;5092909;28;20058;-68
2023/12/12 10:25:25;;;;;;;29.98;9.93;;;;;;;;;;5092727;28;20396;-67
2023/12/12 10:28:29;;;;;;;18.23;7.43;;;;;;;;;;5092584;28;20059;-66
2023/12/12 10:31:35;;;;;;;23.85;9.70;;;;;;;;;;5080080;28;20395;-67
2023/12/12 10:34:44;;;;;;;19.00;8.75;;;;;;;;;;5092830;28;20637;-67
2023/12/12 10:37:49;;;;;;;19.35;10.40;;;;;;;;;;5093076;28;20499;-67
2023/12/12 10:40:54;;;;;;;25.33;11.65;;;;;;;;;;5092262;28;20043;-67
2023/12/12 10:44:05;;;;;;;19.55;11.15;;;;;;;;;;5092202;28;20055;-66
2023/12/12 10:47:14;;;;;;;18.10;8.60;;;15.90;99.90;;;;;;5091556;28;20043;-66
2023/12/12 10:50:18;;;;;;;27.38;10.45;;;;;;;;;;5092016;28;20419;-65
2023/12/12 10:53:25;;;;;;;26.60;10.20;;;;;;;;;;5092273;28;20051;-67
2023/12/12 10:56:35;;;;;;;42.05;14.55;;;;;;;;;;5092260;28;20043;-65
2023/12/12 10:59:40;;;;;;;33.92;11.35;;;;;;;;;;5079065;28;20043;-67
2023/12/12 11:02:45;;;;;;;26.77;9.27;;;;;;;;;;5091885;28;20047;-66
2023/12/12 11:05:50;;;;;;;21.00;8.90;;;;;;;;;;5079388;28;20444;-67
2023/12/12 11:09:00;;;;;;;15.18;6.68;;;;;;;;;;5068021;28;20390;-67
2023/12/12 11:12:05;;;;;;;18.23;7.65;;;;;;;;;;5068210;28;20048;-71
2023/12/12 11:15:12;;;;;;;15.02;7.85;;;;;;;;;;5068585;28;20366;-67
2023/12/12 11:18:20;;;;;;;17.67;8.07;;;;;;;;;;5090600;28;20032;-68
2023/12/12 11:21:44;;;;;;;24.58;9.80;;;16.40;99.90;;;;;;5068454;28;20045;-69
2023/12/12 11:25:00;;;;;;;25.73;10.63;;;15.30;99.90;;;;;;5067777;28;20071;-68
2023/12/12 11:28:05;;;;;;;33.92;12.95;;;;;;;;;;5067972;28;20052;-69
2023/12/12 11:31:09;;;;;;;30.17;13.25;;;;;;;;;;5067796;28;20032;-68
2023/12/12 11:34:14;;;;;;;29.67;15.88;;;;;;;;;;5068335;28;20040;-67
2023/12/12 11:37:19;;;;;;;35.45;15.30;;;;;;;;;;5068174;28;20029;-67
2023/12/12 11:40:27;;;;;;;30.45;14.65;;;;;;;;;;5067622;28;20044;-67
2023/12/12 11:43:32;;;;;;;27.33;13.77;;;;;;;;;;5068154;28;20065;-68
2023/12/12 11:46:38;;;;;;;29.27;13.38;;;;;;;;;;5067301;28;20037;-68
2023/12/12 11:49:45;;;;;;;28.38;13.48;;;;;;;;;;5067288;28;20060;-68
2023/12/12 11:52:50;;;;;;;24.63;13.70;;;;;;;;;;5067477;28;20072;-68
2023/12/12 11:56:00;;;;;;;33.28;14.27;;;;;;;;;;5067280;28;20045;-67
2023/12/12 11:59:06;;;;;;;39.03;16.60;;;;;;;;;;5067006;28;20049;-68
2023/12/12 12:02:10;;;;;;;28.02;13.95;;;;;;;;;;5066510;28;20037;-67
2023/12/12 12:05:15;;;;;;;28.58;13.73;;;;;;;;;;5065153;28;20366;-68
2023/12/12 12:08:20;;;;;;;27.02;14.35;;;;;;;;;;5065954;28;20063;-68
2023/12/12 12:11:24;;;;;;;27.38;14.77;;;;;;;;;;5066325;28;20044;-68
2023/12/12 12:14:28;;;;;;;20.40;12.57;;;;;;;;;;5066856;28;20124;-68
2023/12/12 12:17:33;;;;;;;26.58;14.07;;;;;;;;;;5066306;28;20048;-68
2023/12/12 12:20:47;;;;;;;35.97;18.63;;;16.90;99.90;;;;;;5052344;28;20516;-67
2023/12/12 12:23:52;;;;;;;33.67;17.00;;;;;;;;;;5053823;28;20464;-68
2023/12/12 12:26:57;;;;;;;37.55;18.88;;;;;;;;;;5053901;28;20046;-67
2023/12/12 12:30:03;;;;;;;37.17;19.17;;;;;;;;;;5052554;28;20045;-67
2023/12/12 12:33:09;;;;;;;37.28;20.17;;;;;;;;;;5053258;28;20037;-67
2023/12/12 12:36:14;;;;;;;39.60;17.52;;;;;;;;;;5053332;28;20033;-67
2023/12/12 12:39:19;;;;;;;40.00;17.00;;;;;;;;;;5053092;28;20432;-67
2023/12/12 12:42:39;;;;;;;34.83;16.70;;;17.10;99.90;;;;;;5053390;28;20048;-68
2023/12/12 12:45:45;;;;;;;36.60;14.43;;;;;;;;;;5053056;28;20044;-67
2023/12/12 12:48:49;;;;;;;27.85;13.32;;;;;;;;;;5052784;28;20057;-68
2023/12/12 12:51:56;;;;;;;20.05;10.93;;;;;;;;;;5053159;28;20049;-68
2023/12/12 12:55:00;;;;;;;26.88;12.30;;;;;;;;;;5053061;28;20041;-68
2023/12/12 12:58:05;;;;;;;31.23;12.45;;;;;;;;;;5052741;28;20029;-68
2023/12/12 13:01:09;;;;;;;27.65;11.82;;;;;;;;;;5052706;28;20048;-68
2023/12/12 13:04:13;;;;;;;31.17;13.48;;;;;;;;;;5053134;28;20048;-68
2023/12/12 13:07:19;;;;;;;31.55;13.63;;;;;;;;;;5052589;28;20060;-68
2023/12/12 13:10:24;;;;;;;30.30;13.35;;;17.50;99.90;;;;;;5052463;28;20045;-68
2023/12/12 13:13:29;;;;;;;30.27;12.98;;;;;;;;;;5051856;28;20039;-69
2023/12/12 13:16:33;;;;;;;28.63;12.10;;;;;;;;;;5040409;28;20041;-68
2023/12/12 13:19:38;;;;;;;37.85;12.32;;;;;;;;;;5052718;28;20069;-67
2023/12/12 13:22:43;;;;;;;24.52;10.75;;;;;;;;;;5052462;28;20036;-67
2023/12/12 13:25:47;;;;;;;28.30;12.55;;;;;;;;;;5052414;28;20052;-67
2023/12/12 13:28:55;;;;;;;23.73;11.35;;;;;;;;;;5052304;28;20054;-67
2023/12/12 13:32:00;;;;;;;34.55;13.13;;;;;;;;;;5051422;28;20033;-68
2023/12/12 13:35:04;;;;;;;28.58;9.82;;;;;;;;;;5052649;28;20064;-67
2023/12/12 13:38:08;;;;;;;21.95;9.55;;;;;;;;;;5052626;28;20037;-66
2023/12/12 13:41:13;;;;;;;27.98;9.23;;;;;;;;;;5051407;28;20654;-71
2023/12/12 13:44:18;;;;;;;16.15;7.82;;;;;;;;;;5051252;28;20037;-68
2023/12/12 13:47:27;;;;;;;22.73;8.40;;;;;;;;;;5052161;28;20053;-67
2023/12/12 13:50:31;;;;;;;15.95;7.45;;;;;;;;;;5052131;28;20040;-67
2023/12/12 13:53:38;;;;;;;14.68;7.20;;;;;;;;;;5050738;28;20508;-66
2023/12/12 13:56:43;;;;;;;17.05;7.38;;;;;;;;;;5050757;28;20064;-67
2023/12/12 13:59:47;;;;;;;15.98;7.30;;;;;;;;;;5051575;28;20045;-68
2023/12/12 14:02:52;;;;;;;17.10;7.90;;;;;;;;;;5051506;28;20037;-66
2023/12/12 14:05:56;;;;;;;15.10;6.82;;;;;;;;;;5051505;28;20037;-69
2023/12/12 14:09:00;;;;;;;15.35;8.55;;;;;;;;;;5051241;28;20057;-68
2023/12/12 14:12:06;;;;;;;18.80;8.55;;;;;;;;;;5052090;28;20477;-68
2023/12/12 14:15:11;;;;;;;16.30;9.00;;;;;;;;;;5051492;28;20354;-68
2023/12/12 14:18:15;;;;;;;16.98;8.82;;;;;;;;;;5051388;28;20037;-68
2023/12/12 14:21:19;;;;;;;14.35;6.80;;;;;;;;;;5051690;28;20041;-67
2023/12/12 14:24:23;;;;;;;15.23;6.22;;;;;;;;;;5051763;28;20036;-68
2023/12/12 14:27:28;;;;;;;14.20;5.72;;;;;;;;;;5051316;28;20045;-67
2023/12/12 14:30:32;;;;;;;13.65;4.88;;;;;;;;;;5051101;28;20033;-66
2023/12/12 14:33:37;;;;;;;12.70;5.22;;;;;;;;;;5051464;28;20037;-68
2023/12/12 14:36:41;;;;;;;13.77;5.57;;;;;;;;;;5050721;28;20041;-67
2023/12/12 14:39:45;;;;;;;15.13;5.38;;;;;;;;;;5051566;28;20382;-67
2023/12/12 14:42:49;;;;;;;10.43;5.32;;;;;;;;;;5051039;28;20044;-68
2023/12/12 14:45:54;;;;;;;26.75;10.70;;;;;;;;;;5051373;28;20442;-68
2023/12/12 14:48:59;;;;;;;23.17;9.18;;;;;;;;;;5050858;28;20056;-66
2023/12/12 14:52:04;;;;;;;16.17;8.68;;;;;;;;;;5049762;28;20037;-66
2023/12/12 14:55:08;;;;;;;19.00;9.70;;;;;;;;;;5051202;28;20049;-66
2023/12/12 14:58:15;;;;;;;20.58;10.68;;;;;;;;;;5051236;28;20097;-67
2023/12/12 15:01:19;;;;;;;30.10;14.23;;;;;;;;;;5050003;28;20056;-68
2023/12/12 15:04:24;;;;;;;19.92;12.68;;;;;;;;;;5051015;28;20044;-66
2023/12/12 15:07:28;;;;;;;24.05;11.30;;;;;;;;;;5051005;28;20400;-66
2023/12/12 15:10:32;;;;;;;19.30;10.30;;;;;;;;;;5050517;28;20503;-66
2023/12/12 15:13:37;;;;;;;20.58;9.05;;;;;;;;;;5051100;28;20044;-67
2023/12/12 15:16:41;;;;;;;19.23;8.35;;;;;;;;;;5051235;28;20477;-67
2023/12/12 15:19:45;;;;;;;18.90;8.77;;;;;;;;;;5050642;28;20496;-66
2023/12/12 15:22:50;;;;;;;23.48;8.80;;;;;;;;;;5050849;28;20362;-67
2023/12/12 15:25:55;;;;;;;22.17;8.15;;;17.20;99.90;;;;;;5050534;28;20045;-67
2023/12/12 15:29:00;;;;;;;16.33;7.80;;;;;;;;;;5050468;28;20068;-67
2023/12/12 15:32:05;;;;;;;25.85;8.77;;;;;;;;;;5050084;28;20033;-68
2023/12/12 15:35:10;;;;;;;31.98;10.98;;;;;;;;;;5050465;28;20041;-67
2023/12/12 15:38:14;;;;;;;25.58;10.27;;;;;;;;;;5050847;28;20043;-68
2023/12/12 15:41:18;;;;;;;27.77;11.20;;;;;;;;;;5050446;28;20040;-68
2023/12/12 15:44:23;;;;;;;40.38;11.85;;;;;;;;;;5050283;28;20044;-68
2023/12/12 15:47:27;;;;;;;40.58;14.07;;;;;;;;;;5050302;28;20044;-68
2023/12/12 15:50:31;;;;;;;28.83;12.32;;;;;;;;;;5050420;28;20508;-71
2023/12/12 15:53:35;;;;;;;27.88;12.00;;;;;;;;;;5050572;28;20400;-72
2023/12/12 15:56:41;;;;;;;34.75;13.05;;;;;;;;;;5054231;28;20063;-70
2023/12/12 15:59:45;;;;;;;36.50;14.00;;;;;;;;;;5052950;28;20508;-70
2023/12/12 16:02:50;;;;;;;39.58;13.70;;;;;;;;;;5054075;28;20059;-70
2023/12/12 16:05:54;;;;;;;35.53;12.43;;;;;;;;;;5053980;28;20048;-69
2023/12/12 16:08:58;;;;;;;26.92;11.40;;;;;;;;;;5053263;28;20059;-68
2023/12/12 16:12:04;;;;;;;52.08;18.38;;;;;;;;;;5053882;28;20044;-68
2023/12/12 16:15:11;;;;;;;46.35;17.50;;;;;;;;;;5053667;28;20051;-68
2023/12/12 16:18:15;;;;;;;49.45;20.48;;;;;;;;;;5053817;28;20048;-67
2023/12/12 16:21:19;;;;;;;53.75;21.30;;;;;;;;;;5053781;28;20054;-67
2023/12/12 16:24:24;;;;;;;49.55;20.10;;;;;;;;;;5052756;28;20123;-68
2023/12/12 16:27:28;;;;;;;40.85;18.83;;;;;;;;;;5053744;28;20393;-68
2023/12/12 16:30:33;;;;;;;71.05;31.08;;;;;;;;;;5053482;28;20056;-68
2023/12/12 16:33:39;;;;;;;56.17;25.30;;;;;;;;;;5053686;28;20388;-67
2023/12/12 16:36:43;;;;;;;46.85;20.58;;;;;;;;;;5041076;28;20416;-68
2023/12/12 16:39:48;;;;;;;52.40;23.33;;;;;;;;;;5053135;28;20064;-74
2023/12/12 16:42:52;;;;;;;50.38;23.38;;;;;;;;;;5053313;28;20052;-68
2023/12/12 16:45:57;;;;;;;65.10;28.38;;;;;;;;;;5053062;28;20044;-68
2023/12/12 16:49:01;;;;;;;59.15;27.30;;;;;;;;;;5053068;28;20052;-68
2023/12/12 16:52:06;;;;;;;50.28;26.70;;;;;;;;;;5053202;28;20044;-69
2023/12/12 16:55:14;;;;;;;61.42;28.17;;;;;;;;;;5053202;28;20052;-68
2023/12/12 16:58:18;;;;;;;61.80;28.52;;;;;;;;;;5052891;28;20114;-68
2023/12/12 17:01:22;;;;;;;51.60;26.52;;;;;;;;;;5053504;28;20055;-67
2023/12/12 17:04:28;;;;;;;50.20;24.52;;;;;;;;;;5053149;28;20044;-68
2023/12/12 17:07:32;;;;;;;49.58;27.77;;;;;;;;;;5051607;28;20072;-67
2023/12/12 17:10:37;;;;;;;49.58;27.98;;;;;;;;;;5053047;28;20396;-68
2023/12/12 17:13:41;;;;;;;66.82;35.00;;;;;;;;;;5052643;28;20492;-68
2023/12/12 17:16:45;;;;;;;67.38;37.80;;;;;;;;;;5052642;28;20389;-68
2023/12/12 17:19:52;;;;;;;71.47;37.92;;;;;;;;;;5052568;28;20048;-68
2023/12/12 17:22:57;;;;;;;74.40;38.92;;;;;;;;;;5051605;28;20044;-68
2023/12/12 17:26:02;;;;;;;71.60;36.75;;;;;;;;;;5052601;28;20051;-67
2023/12/12 17:29:06;;;;;;;62.42;40.78;;;;;;;;;;5051892;28;20060;-68
2023/12/12 17:32:11;;;;;;;50.95;31.88;;;;;;;;;;5052374;28;20048;-66
2023/12/12 17:35:15;;;;;;;46.75;30.55;;;;;;;;;;5051947;28;20044;-66
2023/12/12 17:38:20;;;;;;;39.78;22.98;;;;;;;;;;5052279;28;20103;-67
2023/12/12 17:41:25;;;;;;;40.47;24.42;;;;;;;;;;5051906;28;20072;-66
2023/12/12 17:44:29;;;;;;;46.50;30.92;;;;;;;;;;5051941;28;20059;-65
2023/12/12 17:47:37;;;;;;;48.35;28.45;;;;;;;;;;5051475;28;20040;-67
2023/12/12 17:50:42;;;;;;;40.60;23.13;;;;;;;;;;5051037;28;20052;-66
2023/12/12 17:53:47;;;;;;;32.00;19.45;;;;;;;;;;5051280;28;20043;-66
2023/12/12 17:56:51;;;;;;;30.83;18.20;;;;;;;;;;5051405;28;20401;-67